createdAt,value
2018-09-21T00:01:38.408Z,6.03
2018-09-21T00:06:43.483Z,6.45
2018-09-21T00:11:47.931Z,7.20
2018-09-21T00:16:52.463Z,6.15
2018-09-21T00:21:56.928Z,5.60
2018-09-21T00:27:02.176Z,6.55
2018-09-21T00:32:06.835Z,6.08
2018-09-21T00:37:11.287Z,6.35
2018-09-21T00:42:15.686Z,5.83
2018-09-21T00:47:20.195Z,6.15
2018-09-21T00:52:25.385Z,5.95
2018-09-21T00:57:29.944Z,5.20
2018-09-21T01:02:34.484Z,5.55
2018-09-21T01:07:39.556Z,6.58
2018-09-21T01:12:44.089Z,5.80
2018-09-21T01:17:48.933Z,5.05
2018-09-21T01:22:53.332Z,5.55
2018-09-21T01:27:57.835Z,5.78
2018-09-21T01:33:03.150Z,5.72
2018-09-21T01:38:07.678Z,5.62
2018-09-21T01:43:12.085Z,6.20
2018-09-21T01:48:16.744Z,5.97
2018-09-21T01:53:21.329Z,5.35
2018-09-21T01:58:25.999Z,6.08
2018-09-21T02:03:31.286Z,5.20
2018-09-21T02:08:39.318Z,5.60
2018-09-21T02:13:43.821Z,5.75
2018-09-21T02:18:48.490Z,5.83
2018-09-21T02:23:53.014Z,5.37
2018-09-21T02:28:57.532Z,5.60
2018-09-21T02:34:03.650Z,5.53
2018-09-21T02:39:09.325Z,5.37
2018-09-21T02:44:13.892Z,4.90
2018-09-21T02:49:18.947Z,5.55
2018-09-21T02:54:23.416Z,5.15
2018-09-21T02:59:28.456Z,5.35
2018-09-21T03:04:33.120Z,5.60
2018-09-21T03:09:37.727Z,5.70
2018-09-21T03:14:42.238Z,5.53
2018-09-21T03:19:46.746Z,6.05
2018-09-21T03:24:51.372Z,5.05
2018-09-21T03:29:56.506Z,6.20
2018-09-21T03:35:01.260Z,5.45
2018-09-21T03:40:08.009Z,5.40
2018-09-21T03:45:13.536Z,5.70
2018-09-21T03:50:18.340Z,4.83
2018-09-21T03:55:22.826Z,5.47
2018-09-21T04:00:27.749Z,4.95
2018-09-21T04:05:32.150Z,5.47
2018-09-21T04:10:37.040Z,5.10
2018-09-21T04:15:41.518Z,5.95
2018-09-21T04:20:45.924Z,5.83
2018-09-21T04:25:50.499Z,5.97
2018-09-21T04:30:55.133Z,6.00
2018-09-21T04:35:59.462Z,5.87
2018-09-21T04:41:05.437Z,5.95
2018-09-21T04:46:10.083Z,5.70
2018-09-21T04:51:14.702Z,5.20
2018-09-21T04:56:20.099Z,5.80
2018-09-21T05:01:25.351Z,6.17
2018-09-21T05:06:29.828Z,5.30
2018-09-21T05:11:34.412Z,5.87
2018-09-21T05:16:39.945Z,6.22
2018-09-21T05:21:44.893Z,6.40
2018-09-21T05:26:49.944Z,6.58
2018-09-21T05:31:54.610Z,7.22
2018-09-21T05:36:59.076Z,7.28
2018-09-21T05:42:04.135Z,5.87
2018-09-21T05:47:09.860Z,6.97
2018-09-21T05:52:14.866Z,7.15
2018-09-21T05:57:21.712Z,6.40
2018-09-21T06:02:26.392Z,6.83
2018-09-21T06:07:31.517Z,6.05
2018-09-21T06:12:36.788Z,6.40
2018-09-21T06:17:41.235Z,6.72
2018-09-21T06:22:45.809Z,6.65
2018-09-21T06:27:51.827Z,7.42
2018-09-21T06:32:56.363Z,6.50
2018-09-21T06:38:00.797Z,6.55
2018-09-21T06:43:06.093Z,7.03
2018-09-21T06:48:11.174Z,6.15
2018-09-21T06:53:15.669Z,7.62
2018-09-21T06:58:20.188Z,7.33
2018-09-21T07:03:26.371Z,8.13
2018-09-21T07:08:30.794Z,6.95
2018-09-21T07:13:35.647Z,6.87
2018-09-21T07:18:40.088Z,9.45
2018-09-21T07:23:44.578Z,7.62
2018-09-21T07:28:49.350Z,7.47
2018-09-21T07:33:53.761Z,8.68
2018-09-21T07:38:58.613Z,7.83
2018-09-21T07:44:03.090Z,7.58
2018-09-21T07:49:07.934Z,8.95
2018-09-21T07:54:12.710Z,8.38
2018-09-21T07:59:17.529Z,8.85
2018-09-21T08:04:22.111Z,8.55
2018-09-21T08:09:26.538Z,8.88
2018-09-21T08:14:31.520Z,8.58
2018-09-21T08:19:36.479Z,9.03
2018-09-21T08:24:41.441Z,7.75
2018-09-21T08:29:46.334Z,8.60
2018-09-21T08:34:50.839Z,8.25
2018-09-21T08:39:57.050Z,7.80
2018-09-21T08:45:01.797Z,8.18
2018-09-21T08:50:07.132Z,6.70
2018-09-21T08:55:11.803Z,6.87
2018-09-21T09:00:16.573Z,7.00
2018-09-21T09:05:24.222Z,6.72
2018-09-21T09:10:28.717Z,7.45
2018-09-21T09:15:33.211Z,6.33
2018-09-21T09:20:38.681Z,8.08
2018-09-21T09:25:44.729Z,6.45
2018-09-21T09:30:49.447Z,6.35
2018-09-21T09:35:54.749Z,6.67
2018-09-21T09:40:59.819Z,7.08
2018-09-21T09:46:05.382Z,7.35
2018-09-21T09:51:09.889Z,7.92
2018-09-21T09:56:15.056Z,7.10
2018-09-21T10:01:20.287Z,6.60
2018-09-21T10:06:24.818Z,6.55
2018-09-21T10:11:29.337Z,7.62
2018-09-21T10:16:57.120Z,6.65
2018-09-21T10:22:04.517Z,6.30
2018-09-21T10:27:09.197Z,6.65
2018-09-21T10:32:14.081Z,6.60
2018-09-21T10:37:18.630Z,5.97
2018-09-21T10:42:23.160Z,5.67
2018-09-21T10:47:28.064Z,5.17
2018-09-21T10:52:34.090Z,5.67
2018-09-21T10:57:39.951Z,5.08
2018-09-21T11:02:44.479Z,4.40
2018-09-21T11:07:49.940Z,5.10
2018-09-21T11:12:54.548Z,4.08
2018-09-21T11:17:59.494Z,4.85
2018-09-21T11:23:04.940Z,4.00
2018-09-21T11:28:09.653Z,3.47
2018-09-21T11:33:14.804Z,3.80
2018-09-21T11:38:19.685Z,3.90
2018-09-21T11:43:24.752Z,3.77
2018-09-21T11:48:29.262Z,4.33
2018-09-21T11:53:33.556Z,3.70
2018-09-21T11:58:38.299Z,4.03
2018-09-21T12:03:44.165Z,4.05
2018-09-21T12:08:49.361Z,4.12
2018-09-21T12:13:55.416Z,4.40
2018-09-21T12:19:00.895Z,4.53
2018-09-21T12:24:07.791Z,4.17
2018-09-21T12:29:12.372Z,4.10
2018-09-21T12:34:16.791Z,4.00
2018-09-21T12:39:21.930Z,4.53
2018-09-21T12:44:26.372Z,4.30
2018-09-21T12:49:33.030Z,4.35
2018-09-21T12:54:37.891Z,4.50
2018-09-21T12:59:42.432Z,4.10
2018-09-21T13:04:46.796Z,4.65
2018-09-21T13:09:51.692Z,4.00
2018-09-21T13:14:56.099Z,4.03
2018-09-21T13:20:01.488Z,5.80
2018-09-21T13:25:06.047Z,5.17
2018-09-21T13:30:10.518Z,5.55
2018-09-21T13:35:15.036Z,5.72
2018-09-21T13:40:20.038Z,10.35
2018-09-21T13:45:25.657Z,5.80
2018-09-21T13:50:30.201Z,5.83
2018-09-21T13:55:35.524Z,6.08
2018-09-21T14:00:41.327Z,6.20
2018-09-21T14:05:45.833Z,6.17
2018-09-21T14:10:51.217Z,6.03
2018-09-21T14:15:55.618Z,5.35
2018-09-21T14:20:59.959Z,7.53
2018-09-21T14:26:04.469Z,4.22
2018-09-21T14:31:09.077Z,4.42
2018-09-21T14:36:13.569Z,3.83
2018-09-21T14:41:18.078Z,4.25
2018-09-21T14:46:23.579Z,4.28
2018-09-21T14:51:27.902Z,3.60
2018-09-21T14:56:32.363Z,3.75
2018-09-21T15:01:37.851Z,3.35
2018-09-21T15:06:43.047Z,3.35
2018-09-21T15:11:47.705Z,3.90
2018-09-21T15:16:52.418Z,4.95
2018-09-21T15:21:56.814Z,4.10
2018-09-21T15:27:01.300Z,4.12
2018-09-21T15:32:05.836Z,4.37
2018-09-21T15:37:10.339Z,3.87
2018-09-21T15:42:15.898Z,3.80
2018-09-21T15:47:21.212Z,4.08
2018-09-21T15:52:25.774Z,4.05
2018-09-21T15:57:30.759Z,4.70
2018-09-21T16:02:35.072Z,3.95
2018-09-21T16:07:39.642Z,4.28
2018-09-21T16:12:44.003Z,4.67
2018-09-21T16:17:50.306Z,4.53
2018-09-21T16:22:54.658Z,4.35
2018-09-21T16:27:59.237Z,4.08
2018-09-21T16:33:04.548Z,4.37
2018-09-21T16:38:10.177Z,4.33
2018-09-21T16:43:14.776Z,4.28
2018-09-21T16:48:20.111Z,3.85
2018-09-21T16:53:24.861Z,4.58
2018-09-21T16:58:30.075Z,3.98
2018-09-21T17:03:35.469Z,4.17
2018-09-21T17:08:40.209Z,4.22
2018-09-21T17:13:46.057Z,4.10
2018-09-21T17:18:51.172Z,4.25
2018-09-21T17:24:02.546Z,3.98
2018-09-21T17:29:07.637Z,3.95
2018-09-21T17:34:12.983Z,4.05
2018-09-21T17:39:18.900Z,3.87
2018-09-21T17:44:24.172Z,3.20
2018-09-21T17:49:28.978Z,2.98
2018-09-21T17:54:33.579Z,2.90
2018-09-21T17:59:39.767Z,2.95
2018-09-21T18:04:44.634Z,2.60
2018-09-21T18:09:52.209Z,2.90
2018-09-21T18:14:56.707Z,2.67
2018-09-21T18:20:01.422Z,3.22
2018-09-21T18:25:07.480Z,1.90
2018-09-21T18:30:12.547Z,2.17
2018-09-21T18:35:17.365Z,1.60
2018-09-21T18:41:57.648Z,1.40
2018-09-21T18:47:03.060Z,1.30
2018-09-21T18:52:07.667Z,0.82
2018-09-21T18:57:12.379Z,0.50
2018-09-21T19:02:17.626Z,0.40
2018-09-21T19:07:27.261Z,0.30
2018-09-21T19:12:31.786Z,0.30
2018-09-21T19:17:36.457Z,0.40
2018-09-21T19:22:41.094Z,0.10
2018-09-21T19:27:45.868Z,0.20
2018-09-21T19:32:50.402Z,0.30
2018-09-21T19:37:55.970Z,0.20
2018-09-21T19:43:00.618Z,0.20
2018-09-21T19:48:05.233Z,0.20
2018-09-21T19:53:09.949Z,0.40
2018-09-21T19:58:15.609Z,0.20
2018-09-21T20:03:20.353Z,0.30
2018-09-21T20:08:24.981Z,0.30
2018-09-21T20:13:30.935Z,0.30
2018-09-21T20:18:36.277Z,0.30
2018-09-21T20:23:40.992Z,0.40
2018-09-21T20:28:45.971Z,0.40
2018-09-21T20:33:51.366Z,0.30
2018-09-21T20:38:56.273Z,0.25
2018-09-21T20:44:01.191Z,0.50
2018-09-21T20:49:05.932Z,0.42
2018-09-21T20:54:10.932Z,0.60
2018-09-21T20:59:16.038Z,0.50
2018-09-21T21:04:21.205Z,0.50
2018-09-21T21:09:26.155Z,0.68
2018-09-21T21:14:30.544Z,0.68
2018-09-21T21:19:36.989Z,0.62
2018-09-21T21:24:42.173Z,0.95
2018-09-21T21:29:46.753Z,0.62
2018-09-21T21:34:53.284Z,0.93
2018-09-21T21:39:58.340Z,0.57
2018-09-21T21:45:03.030Z,0.75
2018-09-21T21:50:08.101Z,0.80
2018-09-21T21:55:13.495Z,0.72
2018-09-21T22:00:18.893Z,0.70
2018-09-21T22:05:23.497Z,0.70
2018-09-21T22:10:28.054Z,0.78
2018-09-21T22:15:32.384Z,0.78
2018-09-21T22:20:37.098Z,0.68
2018-09-21T22:25:41.858Z,0.60
2018-09-21T22:30:46.237Z,0.80
2018-09-21T22:35:50.970Z,0.60
2018-09-21T22:40:55.550Z,0.50
2018-09-21T22:46:00.125Z,0.80
2018-09-21T22:51:05.441Z,0.98
2018-09-21T22:56:10.355Z,0.80
2018-09-21T23:01:16.112Z,0.70
2018-09-21T23:06:20.681Z,0.80
2018-09-21T23:11:25.187Z,0.50
2018-09-21T23:16:29.653Z,0.47
2018-09-21T23:21:34.470Z,0.78
2018-09-21T23:26:38.937Z,1.30
2018-09-21T23:31:43.692Z,0.90
2018-09-21T23:36:48.490Z,0.98
2018-09-21T23:41:59.368Z,0.80
2018-09-21T23:47:03.893Z,0.70
2018-09-21T23:52:08.505Z,1.10
2018-09-21T23:57:13.099Z,1.00
